createdAt,value
2022-10-06T00:00:04.716Z,30.00
2022-10-06T00:02:52.961Z,31.00
2022-10-06T00:05:21.735Z,30.25
2022-10-06T00:07:50.576Z,31.33
2022-10-06T00:10:18.950Z,31.00
2022-10-06T00:12:50.356Z,32.25
2022-10-06T00:15:22.278Z,29.33
2022-10-06T00:17:51.018Z,31.00
2022-10-06T00:20:19.996Z,29.75
2022-10-06T00:22:50.397Z,31.00
2022-10-06T00:25:22.857Z,29.00
2022-10-06T00:27:52.575Z,32.25
2022-10-06T00:30:27.201Z,31.00
2022-10-06T00:32:58.027Z,31.00
2022-10-06T00:35:29.317Z,31.00
2022-10-06T00:37:57.597Z,31.00
2022-10-06T00:40:26.176Z,31.00
2022-10-06T00:42:58.136Z,31.50
2022-10-06T00:45:44.317Z,32.00
2022-10-06T00:48:22.699Z,31.00
2022-10-06T00:50:54.367Z,31.00
2022-10-06T00:53:23.586Z,32.00
2022-10-06T00:55:53.775Z,30.00
2022-10-06T00:58:21.977Z,30.00
2022-10-06T01:00:55.228Z,32.00
2022-10-06T01:03:35.666Z,31.33
2022-10-06T01:06:04.700Z,30.50
2022-10-06T01:08:33.186Z,29.33
2022-10-06T01:11:02.548Z,30.00
2022-10-06T01:13:31.379Z,30.00
2022-10-06T01:16:11.844Z,30.25
2022-10-06T01:18:43.047Z,32.00
2022-10-06T01:21:49.406Z,29.25
2022-10-06T01:24:19.056Z,31.00
2022-10-06T01:26:51.454Z,30.00
2022-10-06T01:29:21.219Z,28.00
2022-10-06T01:31:50.423Z,28.67
2022-10-06T01:34:19.336Z,29.00
2022-10-06T01:36:47.766Z,28.25
2022-10-06T01:39:16.256Z,27.25
2022-10-06T01:42:03.467Z,26.00
2022-10-06T01:44:31.608Z,28.00
2022-10-06T01:46:59.827Z,29.00
2022-10-06T01:49:28.805Z,27.00
2022-10-06T01:51:57.675Z,26.00
2022-10-06T01:54:25.898Z,27.75
2022-10-06T01:56:54.465Z,30.00
2022-10-06T01:59:24.996Z,26.25
2022-10-06T02:01:54.128Z,29.33
2022-10-06T02:04:22.743Z,26.00
2022-10-06T02:06:51.977Z,28.00
2022-10-06T02:09:20.196Z,28.00
2022-10-06T02:11:49.136Z,26.00
2022-10-06T02:14:18.606Z,27.75
2022-10-06T02:16:46.876Z,29.50
2022-10-06T02:19:16.427Z,26.50
2022-10-06T02:21:44.668Z,26.33
2022-10-06T02:24:12.866Z,29.75
2022-10-06T02:26:41.553Z,28.00
2022-10-06T02:29:10.098Z,27.00
2022-10-06T02:31:38.537Z,27.00
2022-10-06T02:34:07.107Z,28.00
2022-10-06T02:36:35.637Z,30.33
2022-10-06T02:39:05.090Z,30.25
2022-10-06T02:41:33.676Z,27.00
2022-10-06T02:44:02.094Z,29.25
2022-10-06T02:46:31.784Z,31.00
2022-10-06T02:49:00.374Z,27.00
2022-10-06T02:51:28.677Z,29.25
2022-10-06T02:53:57.199Z,29.00
2022-10-06T02:56:26.305Z,28.25
2022-10-06T02:58:54.767Z,31.67
2022-10-06T03:01:35.596Z,29.00
2022-10-06T03:04:12.316Z,29.00
2022-10-06T03:06:43.135Z,29.50
2022-10-06T03:09:19.261Z,30.25
2022-10-06T03:11:47.890Z,30.00
2022-10-06T03:14:22.913Z,29.00
2022-10-06T03:16:52.594Z,31.00
2022-10-06T03:19:25.567Z,29.75
2022-10-06T03:21:55.327Z,31.00
2022-10-06T03:24:31.731Z,32.00
2022-10-06T03:27:00.964Z,33.00
2022-10-06T03:29:31.185Z,31.25
2022-10-06T03:32:00.062Z,33.50
2022-10-06T03:34:30.041Z,29.50
2022-10-06T03:37:00.155Z,31.25
2022-10-06T03:39:30.262Z,31.00
2022-10-06T03:41:58.744Z,31.33
2022-10-06T03:44:27.352Z,33.00
2022-10-06T03:46:55.798Z,31.00
2022-10-06T03:49:24.092Z,31.00
2022-10-06T03:51:54.291Z,31.25
2022-10-06T03:54:27.201Z,31.00
2022-10-06T03:56:55.393Z,32.25
2022-10-06T03:59:23.552Z,31.00
2022-10-06T04:01:53.818Z,32.00
2022-10-06T04:04:27.903Z,34.00
2022-10-06T04:07:01.711Z,31.25
2022-10-06T04:09:29.915Z,31.00
2022-10-06T04:11:58.743Z,31.25
2022-10-06T04:14:27.173Z,28.25
2022-10-06T04:16:57.633Z,32.00
2022-10-06T04:19:31.578Z,31.00
2022-10-06T04:22:00.453Z,32.50
2022-10-06T04:24:28.601Z,30.75
2022-10-06T04:27:18.221Z,29.00
2022-10-06T04:29:53.082Z,28.50
2022-10-06T04:32:22.212Z,33.00
2022-10-06T04:34:50.642Z,31.33
2022-10-06T04:37:19.763Z,29.25
2022-10-06T04:39:48.341Z,30.25
2022-10-06T04:42:16.725Z,29.00
2022-10-06T04:44:45.172Z,29.50
2022-10-06T04:47:13.665Z,29.00
2022-10-06T04:49:41.793Z,30.33
2022-10-06T04:52:10.791Z,30.00
2022-10-06T04:54:40.698Z,31.00
2022-10-06T04:57:10.424Z,29.33
2022-10-06T04:59:59.466Z,29.00
2022-10-06T05:02:32.633Z,30.25
2022-10-06T05:05:01.995Z,31.00
2022-10-06T05:07:30.683Z,31.00
2022-10-06T05:10:00.305Z,31.50
2022-10-06T05:12:31.320Z,31.25
2022-10-06T05:15:00.430Z,33.00
2022-10-06T05:17:28.592Z,30.50
2022-10-06T05:19:57.126Z,33.00
2022-10-06T05:22:25.354Z,32.00
2022-10-06T05:24:54.425Z,32.25
2022-10-06T05:27:22.525Z,30.25
2022-10-06T05:29:50.852Z,31.00
2022-10-06T05:32:19.766Z,29.50
2022-10-06T05:34:47.932Z,29.00
2022-10-06T05:37:16.954Z,31.00
2022-10-06T05:39:47.072Z,32.67
2022-10-06T05:42:15.333Z,33.00
2022-10-06T05:44:44.294Z,30.00
2022-10-06T05:47:14.845Z,32.25
2022-10-06T05:49:43.672Z,32.00
2022-10-06T05:52:11.843Z,31.25
2022-10-06T05:54:40.295Z,30.75
2022-10-06T05:57:12.595Z,32.75
2022-10-06T05:59:41.020Z,35.00
2022-10-06T06:02:09.493Z,32.00
2022-10-06T06:04:44.438Z,29.75
2022-10-06T06:07:12.552Z,32.67
2022-10-06T06:09:43.578Z,30.00
2022-10-06T06:12:11.798Z,31.00
2022-10-06T06:15:10.237Z,31.00
2022-10-06T06:17:47.050Z,31.50
2022-10-06T06:20:15.188Z,32.33
2022-10-06T06:22:43.279Z,32.75
2022-10-06T06:25:13.201Z,33.00
2022-10-06T06:28:02.076Z,30.00
2022-10-06T06:30:30.450Z,33.00
2022-10-06T06:33:00.378Z,31.50
2022-10-06T06:35:29.748Z,32.00
2022-10-06T06:37:59.670Z,32.00
2022-10-06T06:40:29.102Z,30.00
2022-10-06T06:42:57.412Z,29.33
2022-10-06T06:46:04.487Z,29.25
2022-10-06T06:48:51.602Z,32.50
2022-10-06T06:51:23.225Z,33.00
2022-10-06T06:53:53.229Z,30.25
2022-10-06T06:56:22.357Z,32.00
2022-10-06T06:58:51.796Z,32.00
2022-10-06T07:01:22.952Z,29.67
2022-10-06T07:03:58.247Z,32.00
2022-10-06T07:06:31.794Z,32.50
2022-10-06T07:09:02.716Z,32.00
2022-10-06T07:11:40.026Z,32.00
2022-10-06T07:14:16.587Z,33.67
2022-10-06T07:17:05.466Z,33.33
2022-10-06T07:19:52.657Z,32.25
2022-10-06T07:22:42.913Z,34.25
2022-10-06T07:25:25.292Z,32.00
2022-10-06T07:28:01.097Z,30.25
2022-10-06T07:30:38.396Z,31.50
2022-10-06T07:33:15.787Z,32.75
2022-10-06T07:35:46.628Z,31.00
2022-10-06T07:38:17.358Z,31.50
2022-10-06T07:43:48.009Z,32.25
2022-10-06T07:46:19.722Z,32.50
2022-10-06T07:49:08.626Z,31.00
2022-10-06T07:51:37.880Z,33.00
2022-10-06T07:54:08.827Z,34.25
2022-10-06T07:57:00.496Z,32.50
2022-10-06T07:59:28.717Z,34.25
2022-10-06T08:01:57.312Z,31.67
2022-10-06T08:04:25.832Z,32.00
2022-10-06T08:06:54.924Z,27.67
2022-10-06T08:09:23.157Z,30.33
2022-10-06T08:11:52.816Z,32.00
2022-10-06T08:14:21.290Z,33.25
2022-10-06T08:16:49.327Z,28.75
2022-10-06T08:19:19.837Z,32.00
2022-10-06T08:21:48.027Z,30.00
2022-10-06T08:24:17.427Z,28.50
2022-10-06T08:26:45.669Z,33.25
2022-10-06T08:29:13.857Z,36.25
2022-10-06T08:31:42.206Z,35.00
2022-10-06T08:34:12.116Z,34.67
2022-10-06T08:36:44.973Z,33.25
2022-10-06T08:39:20.997Z,33.00
2022-10-06T08:41:55.024Z,29.50
2022-10-06T08:44:32.586Z,31.33
2022-10-06T08:47:11.895Z,32.00
2022-10-06T08:49:44.848Z,33.25
2022-10-06T08:52:28.216Z,30.50
2022-10-06T08:55:32.090Z,29.33
2022-10-06T08:58:34.709Z,27.00
2022-10-06T09:01:19.471Z,25.25
2022-10-06T09:03:49.304Z,25.50
2022-10-06T09:06:55.267Z,26.67
2022-10-06T09:09:23.276Z,27.00
2022-10-06T09:12:07.121Z,27.33
2022-10-06T09:14:52.348Z,35.25
2022-10-06T09:17:35.047Z,34.00
2022-10-06T09:20:28.305Z,33.00
2022-10-06T09:22:57.368Z,38.00
2022-10-06T09:25:29.775Z,34.00
2022-10-06T09:28:00.309Z,37.00
2022-10-06T09:30:28.545Z,37.25
2022-10-06T09:33:02.035Z,36.25
2022-10-06T09:35:32.379Z,37.75
2022-10-06T09:38:09.288Z,37.00
2022-10-06T09:40:42.575Z,34.00
2022-10-06T09:43:29.206Z,38.50
2022-10-06T09:46:46.827Z,39.25
2022-10-06T09:49:18.984Z,33.50
2022-10-06T09:52:16.765Z,36.00
2022-10-06T09:54:45.064Z,35.50
2022-10-06T09:57:26.315Z,32.00
2022-10-06T09:59:59.845Z,37.00
2022-10-06T10:02:38.430Z,35.00
2022-10-06T10:05:20.353Z,34.25
2022-10-06T10:08:01.919Z,32.00
2022-10-06T10:10:30.411Z,31.25
2022-10-06T10:13:00.415Z,35.00
2022-10-06T10:15:49.332Z,34.00
2022-10-06T10:18:23.385Z,36.00
2022-10-06T10:20:57.935Z,36.50
2022-10-06T10:23:31.949Z,39.00
2022-10-06T10:26:48.394Z,35.00
2022-10-06T10:29:22.603Z,38.00
2022-10-06T10:32:16.253Z,35.00
2022-10-06T10:35:23.772Z,35.25
2022-10-06T10:38:23.932Z,37.00
2022-10-06T10:41:21.611Z,37.00
2022-10-06T10:44:05.697Z,35.00
2022-10-06T10:46:43.923Z,46.75
2022-10-06T10:49:20.484Z,50.50
2022-10-06T10:51:56.181Z,45.75
2022-10-06T10:54:53.495Z,44.00
2022-10-06T10:57:30.474Z,44.25
2022-10-06T11:00:02.074Z,40.75
2022-10-06T11:02:31.134Z,39.25
2022-10-06T11:05:18.414Z,38.00
2022-10-06T11:08:12.226Z,36.67
2022-10-06T11:10:59.385Z,42.00
2022-10-06T11:13:36.834Z,41.25
2022-10-06T11:16:16.709Z,43.00
2022-10-06T11:18:51.155Z,40.75
2022-10-06T11:21:47.275Z,39.50
2022-10-06T11:24:53.372Z,45.50
2022-10-06T11:27:36.801Z,48.33
2022-10-06T11:30:19.855Z,48.75
2022-10-06T11:33:26.772Z,50.25
2022-10-06T11:35:55.614Z,50.50
2022-10-06T11:38:42.596Z,48.25
2022-10-06T11:41:32.167Z,51.33
2022-10-06T11:44:15.614Z,53.67
2022-10-06T11:46:54.921Z,52.50
2022-10-06T11:49:29.101Z,51.00
2022-10-06T11:52:17.904Z,48.25
2022-10-06T11:54:54.266Z,48.00
2022-10-06T11:57:25.077Z,53.00
2022-10-06T12:00:16.376Z,51.00
2022-10-06T12:02:47.218Z,50.00
2022-10-06T12:05:49.618Z,49.50
2022-10-06T12:08:04.197Z,46.25
2022-10-06T12:10:35.596Z,45.25
2022-10-06T12:19:56.029Z,38.00
2022-10-06T12:22:35.124Z,36.25
2022-10-06T12:25:25.671Z,36.00
2022-10-06T12:28:28.951Z,36.00
2022-10-06T12:31:34.382Z,33.00
2022-10-06T12:34:02.644Z,32.00
2022-10-06T12:36:32.334Z,32.00
2022-10-06T12:39:00.515Z,31.75
2022-10-06T12:42:02.723Z,30.75
2022-10-06T12:44:43.814Z,28.50
2022-10-06T12:47:42.405Z,28.00
2022-10-06T12:50:24.444Z,28.00
2022-10-06T12:53:06.884Z,28.50
2022-10-06T12:55:48.304Z,28.75
2022-10-06T12:58:27.165Z,27.75
2022-10-06T13:01:01.156Z,27.00
2022-10-06T13:03:30.464Z,27.33
2022-10-06T13:06:02.703Z,27.25
2022-10-06T13:08:33.505Z,26.00
2022-10-06T13:11:25.755Z,27.00
2022-10-06T13:13:56.258Z,26.00
2022-10-06T13:16:31.239Z,29.00
2022-10-06T13:19:01.502Z,30.00
2022-10-06T13:21:30.664Z,33.00
2022-10-06T13:23:59.414Z,31.00
2022-10-06T13:26:30.453Z,30.00
2022-10-06T13:29:00.708Z,30.00
2022-10-06T13:31:33.855Z,31.25
2022-10-06T13:34:13.061Z,32.50
2022-10-06T13:36:44.293Z,35.00
2022-10-06T13:39:17.624Z,35.00
2022-10-06T13:42:02.953Z,36.33
2022-10-06T13:44:42.288Z,33.25
2022-10-06T13:47:22.695Z,33.25
2022-10-06T13:50:06.608Z,32.50
2022-10-06T13:52:35.834Z,29.00
2022-10-06T13:55:06.524Z,31.00
2022-10-06T13:57:50.124Z,30.00
2022-10-06T14:00:29.499Z,37.50
2022-10-06T14:03:06.474Z,37.00
2022-10-06T14:05:44.840Z,32.25
2022-10-06T14:08:13.200Z,29.25
2022-10-06T14:10:41.482Z,32.75
2022-10-06T14:13:14.990Z,32.00
2022-10-06T14:15:48.242Z,28.33
2022-10-06T14:18:43.155Z,33.00
2022-10-06T14:21:17.814Z,31.75
2022-10-06T14:23:50.342Z,35.00
2022-10-06T14:26:24.611Z,35.50
2022-10-06T14:28:53.697Z,34.00
2022-10-06T14:31:23.816Z,34.00
2022-10-06T14:33:53.385Z,35.25
2022-10-06T14:36:24.325Z,30.00
2022-10-06T14:38:53.204Z,29.50
2022-10-06T14:41:27.902Z,34.25
2022-10-06T14:44:16.007Z,36.00
2022-10-06T14:46:48.503Z,32.25
2022-10-06T14:49:17.731Z,33.00
2022-10-06T14:51:45.872Z,35.00
2022-10-06T14:54:14.404Z,30.00
2022-10-06T14:56:43.053Z,32.00
2022-10-06T14:59:17.019Z,31.50
2022-10-06T15:01:47.010Z,29.00
2022-10-06T15:04:20.900Z,29.75
2022-10-06T15:07:07.700Z,26.25
2022-10-06T15:09:36.130Z,27.00
2022-10-06T15:12:05.014Z,27.00
2022-10-06T15:14:35.342Z,31.25
2022-10-06T15:17:04.171Z,29.00
2022-10-06T15:19:34.553Z,26.50
2022-10-06T15:22:04.828Z,26.50
2022-10-06T15:24:33.293Z,25.00
2022-10-06T15:27:23.983Z,26.00
2022-10-06T15:29:53.482Z,28.00
2022-10-06T15:32:22.705Z,25.25
2022-10-06T15:34:52.612Z,28.00
2022-10-06T15:37:21.004Z,26.00
2022-10-06T15:39:49.130Z,27.00
2022-10-06T15:42:20.278Z,29.00
2022-10-06T15:44:50.391Z,28.00
2022-10-06T15:47:18.446Z,26.67
2022-10-06T15:49:47.291Z,26.25
2022-10-06T15:52:18.055Z,25.00
2022-10-06T15:54:48.433Z,24.00
2022-10-06T15:57:21.047Z,23.33
2022-10-06T15:59:49.638Z,28.00
2022-10-06T16:02:20.275Z,25.00
2022-10-06T16:04:55.909Z,24.33
2022-10-06T16:07:24.533Z,25.50
2022-10-06T16:09:52.997Z,24.00
2022-10-06T16:12:23.004Z,25.00
2022-10-06T16:14:52.203Z,24.25
2022-10-06T16:17:20.798Z,23.25
2022-10-06T16:19:49.141Z,27.00
2022-10-06T16:22:18.753Z,24.00
2022-10-06T16:24:47.014Z,26.25
2022-10-06T16:27:15.958Z,28.00
2022-10-06T16:29:44.052Z,28.00
2022-10-06T16:32:12.194Z,26.67
2022-10-06T16:34:40.401Z,26.00
2022-10-06T16:37:08.441Z,27.00
2022-10-06T16:39:36.531Z,24.00
2022-10-06T16:42:04.852Z,24.50
2022-10-06T16:44:33.197Z,25.75
2022-10-06T16:47:01.310Z,24.33
2022-10-06T16:49:29.752Z,23.00
2022-10-06T16:51:57.832Z,24.25
2022-10-06T16:54:25.941Z,23.25
2022-10-06T16:56:55.275Z,23.00
2022-10-06T16:59:26.231Z,24.25
2022-10-06T17:01:54.371Z,23.50
2022-10-06T17:04:24.830Z,22.75
2022-10-06T17:06:57.658Z,21.00
2022-10-06T17:09:28.663Z,20.00
2022-10-06T17:11:59.349Z,22.00
2022-10-06T17:14:31.095Z,21.75
2022-10-06T17:16:59.980Z,20.67
2022-10-06T17:19:30.591Z,21.00
2022-10-06T17:22:00.015Z,21.50
2022-10-06T17:24:29.718Z,21.00
2022-10-06T17:26:59.210Z,21.25
2022-10-06T17:29:27.763Z,21.00
2022-10-06T17:32:00.420Z,21.00
2022-10-06T17:34:34.880Z,20.33
2022-10-06T17:37:03.055Z,20.00
2022-10-06T17:39:31.228Z,20.25
2022-10-06T17:42:00.090Z,21.00
2022-10-06T17:44:29.808Z,21.25
2022-10-06T17:47:00.670Z,20.25
2022-10-06T17:49:32.932Z,20.00
2022-10-06T17:52:01.091Z,21.00
2022-10-06T17:54:32.781Z,21.25
2022-10-06T17:57:01.196Z,21.67
2022-10-06T17:59:31.992Z,22.00
2022-10-06T18:02:02.976Z,20.00
2022-10-06T18:04:35.713Z,20.00
2022-10-06T18:07:04.086Z,20.25
2022-10-06T18:09:32.462Z,22.33
2022-10-06T18:12:02.998Z,20.25
2022-10-06T18:14:33.770Z,21.00
2022-10-06T18:17:02.885Z,21.33
2022-10-06T18:19:35.994Z,22.00
2022-10-06T18:22:13.262Z,22.00
2022-10-06T18:24:41.680Z,23.67
2022-10-06T18:27:10.102Z,23.00
2022-10-06T18:29:39.026Z,24.00
2022-10-06T18:33:10.782Z,24.25
2022-10-06T18:37:46.491Z,23.25
2022-10-06T18:40:15.415Z,21.00
2022-10-06T18:42:43.689Z,22.00
2022-10-06T18:45:33.288Z,22.00
2022-10-06T18:48:24.040Z,21.00
2022-10-06T18:51:02.284Z,24.00
2022-10-06T18:53:33.901Z,22.25
2022-10-06T18:56:02.070Z,22.00
2022-10-06T18:58:30.231Z,21.50
2022-10-06T19:01:04.596Z,23.33
2022-10-06T19:03:33.304Z,23.00
2022-10-06T19:06:02.014Z,22.00
2022-10-06T19:08:30.420Z,23.25
2022-10-06T19:11:22.201Z,24.00
2022-10-06T19:13:53.595Z,23.00
2022-10-06T19:16:21.919Z,23.25
2022-10-06T19:18:50.597Z,24.00
2022-10-06T19:21:18.884Z,21.75
2022-10-06T19:23:47.531Z,25.00
2022-10-06T19:26:17.059Z,25.00
2022-10-06T19:28:47.490Z,24.50
2022-10-06T19:31:20.990Z,26.00
2022-10-06T19:33:49.869Z,27.00
2022-10-06T19:36:19.068Z,27.25
2022-10-06T19:38:48.183Z,29.67
2022-10-06T19:41:35.630Z,24.00
2022-10-06T19:44:05.201Z,37.00
2022-10-06T19:46:35.542Z,39.25
2022-10-06T19:49:09.236Z,38.25
2022-10-06T19:51:41.932Z,39.50
2022-10-06T19:54:12.248Z,42.00
2022-10-06T19:56:42.587Z,36.00
2022-10-06T19:59:16.510Z,40.00
2022-10-06T20:01:46.401Z,39.25
2022-10-06T20:04:17.113Z,41.00
2022-10-06T20:06:47.629Z,41.50
2022-10-06T20:09:22.828Z,42.00
2022-10-06T20:11:52.438Z,41.00
2022-10-06T20:14:23.538Z,41.75
2022-10-06T20:16:54.657Z,41.00
2022-10-06T20:19:25.817Z,46.00
2022-10-06T20:21:54.757Z,41.00
2022-10-06T20:24:24.984Z,44.00
2022-10-06T20:26:54.559Z,40.25
2022-10-06T20:29:26.829Z,42.00
2022-10-06T20:31:56.611Z,40.50
2022-10-06T20:34:32.168Z,41.00
2022-10-06T20:37:02.716Z,41.00
2022-10-06T20:39:51.840Z,38.50
2022-10-06T20:42:21.111Z,41.00
2022-10-06T20:44:49.509Z,41.00
2022-10-06T20:47:17.906Z,43.00
2022-10-06T20:49:46.079Z,41.50
2022-10-06T20:52:15.238Z,42.00
2022-10-06T20:54:44.577Z,40.50
2022-10-06T20:57:13.366Z,41.00
2022-10-06T20:59:41.901Z,42.00
2022-10-06T21:02:11.352Z,41.33
2022-10-06T21:04:43.776Z,41.00
2022-10-06T21:07:12.397Z,41.50
2022-10-06T21:09:40.697Z,44.00
2022-10-06T21:12:08.971Z,41.00
2022-10-06T21:14:38.289Z,46.00
2022-10-06T21:17:06.513Z,47.00
2022-10-06T21:19:38.206Z,47.75
2022-10-06T21:22:06.790Z,43.50
2022-10-06T21:24:35.029Z,46.00
2022-10-06T21:27:03.771Z,44.50
2022-10-06T21:29:32.322Z,45.00
2022-10-06T21:32:00.684Z,44.75
2022-10-06T21:34:28.861Z,46.25
2022-10-06T21:36:57.849Z,46.50
2022-10-06T21:39:26.089Z,41.25
2022-10-06T21:41:54.214Z,47.00
2022-10-06T21:44:22.600Z,46.00
2022-10-06T21:46:52.942Z,48.25
2022-10-06T21:49:25.613Z,45.50
2022-10-06T21:51:55.922Z,47.00
2022-10-06T21:54:24.391Z,43.00
2022-10-06T21:56:53.816Z,43.33
2022-10-06T21:59:22.069Z,42.75
2022-10-06T22:01:53.712Z,44.75
2022-10-06T22:04:22.515Z,43.50
2022-10-06T22:06:50.995Z,44.00
2022-10-06T22:09:20.745Z,47.00
2022-10-06T22:11:49.971Z,43.33
2022-10-06T22:14:20.861Z,43.25
2022-10-06T22:16:49.707Z,43.00
2022-10-06T22:19:20.174Z,42.25
2022-10-06T22:21:49.037Z,41.00
2022-10-06T22:24:19.997Z,43.25
2022-10-06T22:26:49.766Z,39.75
2022-10-06T22:29:20.123Z,40.25
2022-10-06T22:31:49.189Z,40.75
2022-10-06T22:34:20.162Z,42.33
2022-10-06T22:36:48.626Z,42.00
2022-10-06T22:39:17.353Z,41.00
2022-10-06T22:41:46.112Z,41.25
2022-10-06T22:44:14.489Z,39.25
2022-10-06T22:46:43.106Z,40.50
2022-10-06T22:49:11.863Z,38.00
2022-10-06T22:51:40.150Z,37.25
2022-10-06T22:54:09.950Z,41.00
2022-10-06T22:56:38.597Z,39.00
2022-10-06T22:59:06.820Z,41.00
2022-10-06T23:01:35.145Z,37.00
2022-10-06T23:04:03.742Z,39.00
2022-10-06T23:06:32.234Z,38.50
2022-10-06T23:09:00.582Z,37.50
2022-10-06T23:11:29.501Z,39.75
2022-10-06T23:13:58.072Z,37.00
2022-10-06T23:16:26.509Z,37.75
2022-10-06T23:18:55.878Z,35.25
2022-10-06T23:21:27.986Z,33.00
2022-10-06T23:23:59.928Z,34.50
2022-10-06T23:26:28.563Z,34.50
2022-10-06T23:28:59.911Z,35.00
2022-10-06T23:31:29.906Z,34.00
2022-10-06T23:33:58.637Z,34.00
2022-10-06T23:36:27.174Z,33.25
2022-10-06T23:38:55.991Z,33.50
2022-10-06T23:41:24.596Z,34.00
2022-10-06T23:43:52.830Z,33.33
2022-10-06T23:46:21.163Z,34.00
2022-10-06T23:48:49.678Z,34.50
2022-10-06T23:51:18.380Z,37.00
2022-10-06T23:53:47.190Z,35.50
2022-10-06T23:56:15.999Z,33.00
2022-10-06T23:58:44.300Z,36.25
